Time;durP1;ratioP1;P1;durP2;ratioP2;P2;SDS_P1;SDS_P2;PMS_P1;PMS_P2;Temp;Humidity;BMP_temperature;BMP_pressure;BME280_temperature;BME280_humidity;BME280_pressure;Samples;Min_cycle;Max_cycle;Signal;HPM_P1;HPM_P2
2024/01/11 00:01:47;;;;;;;47.33;22.47;;;;;;;;;;5058368;28;20667;-64
2024/01/11 00:04:13;;;;;;;54.80;25.57;;;;;;;;;;5074553;28;20192;-64
2024/01/11 00:06:43;;;;;;;42.67;24.40;;;;;;;;;;5074157;28;20404;-64
2024/01/11 00:09:09;;;;;;;49.10;24.80;;;;;;;;;;5076711;28;20422;-64
2024/01/11 00:11:35;;;;;;;41.27;22.23;;;;;;;;;;5073738;28;20496;-64
2024/01/11 00:14:01;;;;;;;45.40;25.13;;;;;;;;;;5075162;28;20204;-64
2024/01/11 00:16:27;;;;;;;52.43;26.17;;;;;;;;;;5075487;28;20548;-64
2024/01/11 00:18:53;;;;;;;44.87;24.60;;;;;;;;;;5055691;28;20411;-64
2024/01/11 00:21:18;;;;;;;49.63;25.87;;;;;;;;;;5074221;28;20735;-64
2024/01/11 00:23:44;;;;;;;49.03;26.23;;;;;;;;;;5074353;28;20455;-64
2024/01/11 00:26:13;;;;;;;43.67;22.50;;;;;;;;;;5073153;28;20174;-64
2024/01/11 00:28:39;;;;;;;47.80;23.73;;;;;;;;;;5073663;28;20254;-64
2024/01/11 00:31:05;;;;;;;42.20;21.93;;;;;;;;;;5073249;28;20436;-65
2024/01/11 00:33:32;;;;;;;46.43;23.43;;;;;;;;;;5056119;28;20696;-63
2024/01/11 00:35:58;;;;;;;40.30;22.77;;;;;;;;;;5054928;28;20465;-64
2024/01/11 00:38:24;;;;;;;42.33;21.10;;;;;;;;;;5073639;28;20930;-64
2024/01/11 00:40:50;;;;;;;43.83;22.97;;;;;;;;;;5072667;28;20501;-64
2024/01/11 00:43:16;;;;;;;48.77;26.23;;;;;;;;;;5076329;28;20211;-64
2024/01/11 00:45:42;;;;;;;23.37;14.00;;;;;;;;;;5073830;28;20233;-63
2024/01/11 00:48:08;;;;;;;46.93;23.23;;;;;;;;;;5073720;28;20198;-64
2024/01/11 00:50:34;;;;;;;34.00;14.57;;;;;;;;;;5076193;28;20208;-64
2024/01/11 00:53:01;;;;;;;47.53;25.67;;;;;;;;;;5073178;28;20203;-64
2024/01/11 00:55:27;;;;;;;47.73;24.73;;;;;;;;;;5073402;28;20168;-64
2024/01/11 00:57:53;;;;;;;54.10;25.57;;;;;;;;;;5075779;28;20484;-64
2024/01/11 01:00:19;;;;;;;51.00;25.17;;;;;;;;;;5073345;28;20180;-63
2024/01/11 01:02:44;;;;;;;38.63;21.37;;;;;;;;;;5084528;28;20493;-67
2024/01/11 01:05:10;;;;;;;49.03;26.20;;;;;;;;;;5097593;28;20451;-64
2024/01/11 01:07:36;;;;;;;43.13;25.47;;;;;;;;;;5096948;28;20293;-64
2024/01/11 01:10:02;;;;;;;49.77;26.10;;;;;;;;;;5095984;28;20406;-64
2024/01/11 01:12:28;;;;;;;51.47;25.43;;;;;;;;;;5074577;28;20227;-64
2024/01/11 01:14:55;;;;;;;49.47;26.20;;;;;;;;;;5080669;28;20442;-65
2024/01/11 01:17:22;;;;;;;49.23;25.43;;;;;;;;;;5075458;28;20279;-64
2024/01/11 01:19:48;;;;;;;51.50;27.10;;;;;;;;;;5055168;28;20458;-64
2024/01/11 01:22:14;;;;;;;48.30;26.90;;;;;;;;;;5072767;28;20977;-64
2024/01/11 01:24:40;;;;;;;48.80;26.37;;;;;;;;;;5072235;28;20183;-63
2024/01/11 01:27:06;;;;;;;52.17;28.03;;;;;;;;;;5072535;28;20418;-64
2024/01/11 01:29:32;;;;;;;49.60;26.60;;;;;;;;;;5072521;28;20235;-64
2024/01/11 01:31:57;;;;;;;47.40;26.97;;;;;;;;;;5054280;28;20208;-64
2024/01/11 01:34:23;;;;;;;65.77;28.47;;;;;;;;;;5072140;28;20216;-64
2024/01/11 01:36:49;;;;;;;50.43;27.17;;;;;;;;;;5054506;28;20180;-64
2024/01/11 01:39:15;;;;;;;48.73;27.23;;;;;;;;;;5072469;28;20173;-64
2024/01/11 01:41:41;;;;;;;52.87;28.37;;;;;;;;;;5073327;28;20264;-64
2024/01/11 01:44:08;;;;;;;49.60;27.90;;;;;;;;;;5072335;28;20419;-64
2024/01/11 01:46:35;;;;;;;53.10;28.07;;;;;;;;;;5072436;28;20474;-63
2024/01/11 01:49:01;;;;;;;52.23;28.17;;;;;;;;;;5074492;28;20177;-64
2024/01/11 01:51:29;;;;;;;52.90;27.07;;;;;;;;;;5072664;28;20435;-63
2024/01/11 01:53:56;;;;;;;51.73;29.70;;;;;;;;;;5075749;28;20461;-64
2024/01/11 01:56:22;;;;;;;53.63;27.53;;;;;;;;;;5075849;28;20497;-64
2024/01/11 01:58:48;;;;;;;54.13;27.37;;;;;;;;;;5057628;28;20919;-64
2024/01/11 02:01:15;;;;;;;54.80;27.73;;;;;;;;;;5075187;28;20499;-65
2024/01/11 02:03:41;;;;;;;51.67;27.70;;;;;;;;;;5075122;28;20485;-64
2024/01/11 02:06:08;;;;;;;54.07;28.57;;;;;;;;;;5075324;28;20517;-64
2024/01/11 02:08:34;;;;;;;48.57;28.50;;;;;;;;;;5075423;28;20939;-64
2024/01/11 02:11:01;;;;;;;56.17;28.43;;;;;;;;;;5075066;28;20418;-64
2024/01/11 02:13:27;;;;;;;54.60;28.77;;;;;;;;;;5074899;28;20462;-64
2024/01/11 02:15:53;;;;;;;57.53;29.03;;;;;;;;;;5075036;28;20404;-63
2024/01/11 02:18:19;;;;;;;56.97;29.20;;;;;;;;;;5075442;28;20726;-64
2024/01/11 02:20:45;;;;;;;52.80;28.10;;;;;;;;;;5056999;28;20568;-65
2024/01/11 02:23:18;;;;;;;50.50;28.53;;;;;;;;;;5074579;28;20487;-64
2024/01/11 02:25:44;;;;;;;52.53;28.83;;;;;;;;;;5075380;28;20471;-64
2024/01/11 02:28:11;;;;;;;57.90;28.87;;;;;;;;;;5058557;28;20418;-64
2024/01/11 02:30:37;;;;;;;52.83;28.63;;;;;;;;;;5076723;28;20185;-63
2024/01/11 02:33:04;;;;;;;53.20;29.53;;;;;;;;;;5076214;28;20529;-64
2024/01/11 02:35:30;;;;;;;48.50;26.30;;;;;;;;;;5075780;28;20183;-64
2024/01/11 02:37:55;;;;;;;52.97;28.50;;;;;;;;;;5075800;28;20509;-64
2024/01/11 02:40:22;;;;;;;45.40;24.03;;;;;;;;;;5075772;28;20447;-64
2024/01/11 02:42:48;;;;;;;49.17;28.40;;;;;;;;;;5075266;28;20225;-64
2024/01/11 02:45:14;;;;;;;53.93;27.60;;;;;;;;;;5074943;28;20510;-64
2024/01/11 02:47:40;;;;;;;52.70;28.63;;;;;;;;;;5074508;28;20668;-64
2024/01/11 02:50:07;;;;;;;54.00;28.20;;;;;;;;;;5074675;28;20425;-64
2024/01/11 02:52:33;;;;;;;48.43;28.13;;;;;;;;;;5074615;28;20475;-64
2024/01/11 02:54:59;;;;;;;53.27;28.40;;;;;;;;;;5075084;28;20414;-64
2024/01/11 02:57:25;;;;;;;52.57;27.37;;;;;;;;;;5075165;28;20424;-65
2024/01/11 02:59:51;;;;;;;51.80;27.00;;;;;;;;;;5074827;28;20211;-64
2024/01/11 03:02:17;;;;;;;51.57;28.87;;;;;;;;;;5056902;28;20203;-64
2024/01/11 03:04:43;;;;;;;54.10;27.57;;;;;;;;;;5074169;28;20412;-64
2024/01/11 03:07:09;;;;;;;50.90;27.97;;;;;;;;;;5075114;28;20766;-64
2024/01/11 03:09:35;;;;;;;50.37;25.97;;;;;;;;;;5075036;28;20410;-64
2024/01/11 03:12:01;;;;;;;57.63;27.77;;;;;;;;;;5058537;28;20282;-64
2024/01/11 03:14:27;;;;;;;45.83;26.83;;;;;;;;;;5056314;28;20550;-64
2024/01/11 03:16:53;;;;;;;51.30;27.70;;;;;;;;;;5056228;28;20718;-64
2024/01/11 03:19:19;;;;;;;56.93;28.90;;;;;;;;;;5075456;28;20454;-64
2024/01/11 03:21:46;;;;;;;50.20;27.47;;;;;;;;;;5073746;28;20265;-64
2024/01/11 03:24:12;;;;;;;49.23;27.23;;;;;;;;;;5055743;28;20209;-64
2024/01/11 03:26:38;;;;;;;52.27;30.17;;;;;;;;;;5073389;28;20455;-64
2024/01/11 03:29:04;;;;;;;50.60;26.43;;;;;;;;;;5055811;28;20442;-64
2024/01/11 03:31:30;;;;;;;55.43;27.30;;;;;;;;;;5073889;28;20932;-64
2024/01/11 03:33:56;;;;;;;54.00;28.30;;;;;;;;;;5055554;28;20213;-65
2024/01/11 03:36:24;;;;;;;47.43;27.20;;;;;;;;;;5073314;28;20247;-64
2024/01/11 03:38:50;;;;;;;52.70;26.50;;;;;;;;;;5073313;28;20172;-63
2024/01/11 03:41:16;;;;;;;45.07;26.33;;;;;;;;;;5074043;28;20419;-63
2024/01/11 03:43:42;;;;;;;52.87;28.00;;;;;;;;;;5074026;28;20201;-64
2024/01/11 03:46:08;;;;;;;50.37;27.60;;;;;;;;;;5073121;28;20501;-63
2024/01/11 03:48:37;;;;;;;51.83;27.33;;;;;;;;;;5073156;28;20189;-64
2024/01/11 03:51:03;;;;;;;47.37;26.07;;;;;;;;;;5055312;28;20566;-63
2024/01/11 03:53:29;;;;;;;48.90;25.13;;;;;;;;;;5074649;28;20454;-64
2024/01/11 03:55:55;;;;;;;49.07;26.50;;;;;;;;;;5074469;28;20877;-63
2024/01/11 03:58:21;;;;;;;45.20;27.83;;;;;;;;;;5074416;28;20619;-64
2024/01/11 04:00:47;;;;;;;49.37;28.03;;;;;;;;;;5074159;28;20175;-63
2024/01/11 04:03:13;;;;;;;49.07;29.13;;;;;;;;;;5056512;28;20428;-64
2024/01/11 04:05:39;;;;;;;49.43;25.87;;;;;;;;;;5056604;28;20229;-64
2024/01/11 04:08:07;;;;;;;48.77;27.10;;;;;;;;;;5074393;28;20415;-63
2024/01/11 04:10:32;;;;;;;50.33;22.87;;;;;;;;;;5074479;28;20192;-63
2024/01/11 04:12:58;;;;;;;51.53;29.10;;;;;;;;;;5077245;28;20459;-64
2024/01/11 04:15:24;;;;;;;49.73;26.27;;;;;;;;;;5074791;28;20598;-64
2024/01/11 04:17:50;;;;;;;49.10;26.90;;;;;;;;;;5074390;28;20410;-63
2024/01/11 04:20:16;;;;;;;53.17;28.73;;;;;;;;;;5074564;28;20626;-63
2024/01/11 04:22:42;;;;;;;52.30;28.33;;;;;;;;;;5074597;28;20691;-63
2024/01/11 04:25:08;;;;;;;47.80;26.03;;;;;;;;;;5074460;28;20183;-64
2024/01/11 04:27:34;;;;;;;54.30;29.93;;;;;;;;;;5076610;28;20211;-64
2024/01/11 04:30:00;;;;;;;48.10;26.67;;;;;;;;;;5056434;28;20428;-64
2024/01/11 04:32:26;;;;;;;51.30;26.63;;;;;;;;;;5056764;28;20217;-64
2024/01/11 04:34:52;;;;;;;52.53;27.77;;;;;;;;;;5074528;28;20203;-64
2024/01/11 04:37:18;;;;;;;49.53;27.40;;;;;;;;;;5075013;28;20187;-64
2024/01/11 04:39:44;;;;;;;51.73;29.03;;;;;;;;;;5055926;28;20189;-64
2024/01/11 04:42:10;;;;;;;47.13;26.47;;;;;;;;;;5073985;28;20623;-64
2024/01/11 04:44:36;;;;;;;46.10;26.23;;;;;;;;;;5077189;28;20183;-63
2024/01/11 04:47:02;;;;;;;50.97;27.93;;;;;;;;;;5075260;28;20416;-66
2024/01/11 04:49:28;;;;;;;54.50;28.17;;;;;;;;;;5074701;28;20604;-67
2024/01/11 04:51:54;;;;;;;54.57;29.70;;;;;;;;;;5076662;28;20438;-66
2024/01/11 04:54:20;;;;;;;51.27;28.20;;;;;;;;;;5074045;28;20199;-67
2024/01/11 04:56:46;;;;;;;54.33;27.67;;;;;;;;;;5074582;28;20180;-67
2024/01/11 04:59:12;;;;;;;55.13;29.93;;;;;;;;;;5075886;28;20177;-67
2024/01/11 05:01:38;;;;;;;49.10;26.20;;;;;;;;;;5075604;28;20199;-66
2024/01/11 05:04:04;;;;;;;48.40;26.63;;;;;;;;;;5074066;28;20193;-65
2024/01/11 05:06:30;;;;;;;49.43;26.30;;;;;;;;;;5074679;28;20258;-66
2024/01/11 05:08:56;;;;;;;48.97;27.00;;;;;;;;;;5076291;28;20182;-67
2024/01/11 05:11:24;;;;;;;48.27;28.47;;;;;;;;;;5074375;28;20571;-66
2024/01/11 05:13:50;;;;;;;49.33;26.60;;;;;;;;;;5074399;28;20546;-67
2024/01/11 05:16:19;;;;;;;54.13;28.60;;;;;;;;;;5074562;28;20420;-66
2024/01/11 05:18:45;;;;;;;50.57;27.23;;;;;;;;;;5056360;28;20416;-67
2024/01/11 05:21:11;;;;;;;53.03;28.57;;;;;;;;;;5056812;28;20475;-67
2024/01/11 05:23:37;;;;;;;56.67;29.40;;;;;;;;;;5075731;28;20252;-67
2024/01/11 05:26:03;;;;;;;57.00;30.47;;;;;;;;;;5057319;28;20176;-67
2024/01/11 05:28:29;;;;;;;48.97;28.13;;;;;;;;;;5078992;28;20222;-67
2024/01/11 05:30:55;;;;;;;51.57;28.67;;;;;;;;;;5079473;28;20450;-67
2024/01/11 05:33:21;;;;;;;48.00;25.37;;;;;;;;;;5081048;28;20262;-66
2024/01/11 05:35:47;;;;;;;51.87;29.50;;;;;;;;;;5078908;28;20440;-67
2024/01/11 05:38:13;;;;;;;54.30;28.87;;;;;;;;;;5077458;28;20412;-66
2024/01/11 05:40:39;;;;;;;38.87;19.77;;;;;;;;;;5059641;28;20409;-66
2024/01/11 05:43:05;;;;;;;50.13;27.17;;;;;;;;;;5080066;28;20217;-66
2024/01/11 05:45:31;;;;;;;53.23;28.83;;;;;;;;;;5079244;28;20188;-66
2024/01/11 05:47:56;;;;;;;51.23;25.87;;;;;;;;;;5080401;28;20192;-66
2024/01/11 05:50:22;;;;;;;42.37;22.27;;;;;;;;;;5079382;28;20185;-67
2024/01/11 05:52:48;;;;;;;53.50;26.67;;;;;;;;;;5079099;28;20209;-66
2024/01/11 05:55:14;;;;;;;52.47;28.33;;;;;;;;;;5078517;28;20172;-66
2024/01/11 05:57:40;;;;;;;50.47;27.63;;;;;;;;;;5079818;28;20414;-66
2024/01/11 06:00:06;;;;;;;53.40;25.93;;;;;;;;;;5079335;28;20203;-67
2024/01/11 06:02:32;;;;;;;49.60;28.93;;;;;;;;;;5078386;28;20222;-67
2024/01/11 06:04:58;;;;;;;52.90;28.67;;;;;;;;;;5081285;28;20415;-67
2024/01/11 06:07:24;;;;;;;47.17;28.60;;;;;;;;;;5080046;28;20639;-67
2024/01/11 06:09:50;;;;;;;50.40;27.97;;;;;;;;;;5079448;28;20213;-67
2024/01/11 06:12:17;;;;;;;47.27;26.73;;;;;;;;;;5078813;28;20431;-67
2024/01/11 06:14:43;;;;;;;50.50;27.07;;;;;;;;;;5080379;28;20211;-66
2024/01/11 06:17:10;;;;;;;49.60;26.37;;;;;;;;;;5080426;28;20410;-66
2024/01/11 06:19:37;;;;;;;54.60;28.80;;;;;;;;;;5078974;28;20175;-67
2024/01/11 06:22:03;;;;;;;56.07;28.87;;;;;;;;;;5059806;28;20434;-67
2024/01/11 06:24:29;;;;;;;52.53;26.70;;;;;;;;;;5079863;28;20420;-66
2024/01/11 06:26:55;;;;;;;45.20;27.30;;;;;;;;;;5063634;28;20202;-67
2024/01/11 06:29:21;;;;;;;52.00;27.70;;;;;;;;;;5080362;28;20418;-67
2024/01/11 06:31:47;;;;;;;49.00;28.27;;;;;;;;;;5079541;28;20489;-67
2024/01/11 06:34:13;;;;;;;54.10;28.03;;;;;;;;;;5081979;28;20203;-67
2024/01/11 06:36:39;;;;;;;51.67;27.90;;;;;;;;;;5084901;28;20187;-67
2024/01/11 06:39:05;;;;;;;55.40;29.03;;;;;;;;;;5085256;28;20400;-67
2024/01/11 06:41:31;;;;;;;56.70;29.07;;;;;;;;;;5086046;28;20204;-67
2024/01/11 06:43:57;;;;;;;54.07;28.50;;;;;;;;;;5059004;28;20458;-67
2024/01/11 06:46:23;;;;;;;52.03;28.70;;;;;;;;;;5075047;28;20263;-67
2024/01/11 06:48:49;;;;;;;52.50;28.03;;;;;;;;;;5077370;28;20181;-67
2024/01/11 06:51:22;;;;;;;54.13;28.23;;;;;;;;;;5076456;28;20467;-67
2024/01/11 06:53:48;;;;;;;51.17;29.00;;;;;;;;;;5075473;28;21034;-67
2024/01/11 06:56:17;;;;;;;53.73;27.70;;;;;;;;;;5075758;28;20501;-67
2024/01/11 06:58:46;;;;;;;54.37;29.33;;;;;;;;;;5068575;28;20498;-68
2024/01/11 07:01:12;;;;;;;51.80;29.93;;;;;;;;;;5096297;28;20419;-67
2024/01/11 07:03:41;;;;;;;51.67;28.80;;;;;;;;;;5095255;28;20410;-68
2024/01/11 07:06:07;;;;;;;53.67;28.43;;;;;;;;;;5077362;28;20416;-67
2024/01/11 07:08:34;;;;;;;48.43;27.87;;;;;;;;;;5080845;28;20410;-67
2024/01/11 07:11:02;;;;;;;54.30;29.27;;;;;;;;;;5076931;28;20437;-66
2024/01/11 07:13:28;;;;;;;52.10;29.07;;;;;;;;;;5077155;28;20466;-67
2024/01/11 07:15:55;;;;;;;55.53;29.30;;;;;;;;;;5075070;28;20410;-66
2024/01/11 07:18:21;;;;;;;57.93;29.30;;;;;;;;;;5075276;28;20494;-67
2024/01/11 07:20:47;;;;;;;55.53;29.53;;;;;;;;;;5075378;28;20882;-67
2024/01/11 07:23:13;;;;;;;51.40;29.23;;;;;;;;;;5075719;28;20477;-67
2024/01/11 07:25:40;;;;;;;53.07;29.30;;;;;;;;;;5056421;28;20795;-65
2024/01/11 07:28:06;;;;;;;60.47;29.37;;;;;;;;;;5074771;28;20418;-67
2024/01/11 07:30:32;;;;;;;53.70;30.20;;;;;;;;;;5074469;28;20866;-67
2024/01/11 07:32:58;;;;;;;55.90;29.70;;;;;;;;;;5074538;28;20614;-67
2024/01/11 07:35:24;;;;;;;65.60;32.23;;;;;;;;;;5074746;28;20218;-67
2024/01/11 07:37:50;;;;;;;56.20;29.30;;;;;;;;;;5074289;28;20177;-67
2024/01/11 07:40:16;;;;;;;59.57;29.83;;;;;;;;;;5077025;28;20164;-66
2024/01/11 07:42:43;;;;;;;58.07;31.73;;;;;;;;;;5074207;28;20459;-67
2024/01/11 07:45:10;;;;;;;57.00;29.43;;;;;;;;;;5056339;28;20414;-66
2024/01/11 07:47:37;;;;;;;52.20;29.10;;;;;;;;;;5074138;28;20787;-66
2024/01/11 07:50:03;;;;;;;50.63;28.67;;;;;;;;;;5076781;28;20841;-67
2024/01/11 07:52:29;;;;;;;50.40;27.63;;;;;;;;;;5073773;28;20910;-67
2024/01/11 07:54:55;;;;;;;48.60;27.30;;;;;;;;;;5073965;28;20977;-67
2024/01/11 07:57:21;;;;;;;51.77;26.63;;;;;;;;;;5074208;28;20404;-67
2024/01/11 07:59:48;;;;;;;48.33;27.73;;;;;;;;;;5076665;28;20409;-67
2024/01/11 08:02:15;;;;;;;48.53;26.87;;;;;;;;;;5074232;28;20192;-65
2024/01/11 08:04:41;;;;;;;52.03;28.43;;;;;;;;;;5073672;28;20409;-66
2024/01/11 08:07:06;;;;;;;53.23;29.33;;;;;;;;;;5073241;28;20413;-67
2024/01/11 08:09:32;;;;;;;52.33;28.20;;;;;;;;;;5073439;28;20180;-67
2024/01/11 08:11:58;;;;;;;54.07;29.27;;;;;;;;;;5054962;28;20211;-67
2024/01/11 08:14:24;;;;;;;56.37;28.10;;;;;;;;;;5072877;28;20342;-66
2024/01/11 08:16:50;;;;;;;47.43;27.53;;;;;;;;;;5074133;28;20177;-67
2024/01/11 08:19:16;;;;;;;51.30;28.33;;;;;;;;;;5055380;28;20422;-67
2024/01/11 08:21:42;;;;;;;51.23;28.70;;;;;;;;;;5072918;28;20248;-67
2024/01/11 08:24:08;;;;;;;48.73;28.00;;;;;;;;;;5072805;28;20189;-66
2024/01/11 08:26:34;;;;;;;47.87;27.00;;;;;;;;;;5073542;28;20486;-66
2024/01/11 08:29:00;;;;;;;47.17;27.37;;;;;;;;;;5054851;28;20418;-66
2024/01/11 08:31:26;;;;;;;53.60;27.83;;;;;;;;;;5073411;28;20653;-66
2024/01/11 08:33:52;;;;;;;45.93;27.80;;;;;;;;;;5073012;28;20465;-66
2024/01/11 08:36:18;;;;;;;49.07;27.07;;;;;;;;;;5055417;28;20181;-66
2024/01/11 08:38:44;;;;;;;52.70;27.67;;;;;;;;;;5073531;28;20410;-67
2024/01/11 08:41:10;;;;;;;53.33;27.80;;;;;;;;;;5055501;28;20181;-65
2024/01/11 08:43:36;;;;;;;49.20;27.83;;;;;;;;;;5073065;28;20199;-66
2024/01/11 08:46:02;;;;;;;49.43;27.20;;;;;;;;;;5073462;28;20228;-66
2024/01/11 08:48:28;;;;;;;51.93;27.23;;;;;;;;;;5073409;28;20414;-67
2024/01/11 08:50:54;;;;;;;64.43;28.87;;;;;;;;;;5055145;28;20615;-66
2024/01/11 08:53:21;;;;;;;52.47;27.80;;;;;;;;;;5073043;28;20451;-66
2024/01/11 08:55:47;;;;;;;51.90;27.00;;;;;;;;;;5055133;28;20419;-67
2024/01/11 08:58:13;;;;;;;55.10;28.60;;;;;;;;;;5073612;28;20508;-67
2024/01/11 09:00:39;;;;;;;50.33;27.93;;;;;;;;;;5074390;28;20180;-66
2024/01/11 09:03:05;;;;;;;59.97;29.37;;;;;;;;;;5076464;28;20431;-68
2024/01/11 09:05:31;;;;;;;51.00;29.77;;;;;;;;;;5078499;28;20259;-67
2024/01/11 09:07:57;;;;;;;54.83;29.37;;;;;;;;;;5077066;28;20200;-67
2024/01/11 09:10:23;;;;;;;53.87;27.40;;;;;;;;;;5078823;28;20410;-67
2024/01/11 09:12:49;;;;;;;50.47;27.10;;;;;;;;;;5076535;28;20211;-67
2024/01/11 09:15:15;;;;;;;47.83;26.57;;;;;;;;;;5076746;28;20225;-67
2024/01/11 09:17:41;;;;;;;47.23;24.90;;;;;;;;;;5077023;28;20442;-67
2024/01/11 09:20:07;;;;;;;55.60;29.77;;;;;;;;;;5076679;28;20238;-67
2024/01/11 09:22:33;;;;;;;54.27;28.73;;;;;;;;;;5058642;28;20299;-67
2024/01/11 09:24:59;;;;;;;48.30;25.23;;;;;;;;;;5076608;28;20442;-67
2024/01/11 09:27:25;;;;;;;46.73;26.23;;;;;;;;;;5077538;28;20464;-67
2024/01/11 09:29:51;;;;;;;49.93;28.83;;;;;;;;;;5076519;28;20593;-67
2024/01/11 09:32:17;;;;;;;51.20;28.13;;;;;;;;;;5076386;28;20199;-67
2024/01/11 09:34:45;;;;;;;52.30;28.17;;;;;;;;;;5076098;28;20557;-67
2024/01/11 09:37:11;;;;;;;52.07;28.60;;;;;;;;;;5076180;28;20176;-67
2024/01/11 09:39:37;;;;;;;47.60;25.20;;;;;;;;;;5058582;28;20441;-67
2024/01/11 09:42:09;;;;;;;48.73;27.17;;;;;;;;;;5076173;28;20207;-67
2024/01/11 09:44:38;;;;;;;50.10;28.33;;;;;;;;;;5076217;28;20657;-67
2024/01/11 09:47:04;;;;;;;53.17;27.83;;;;;;;;;;5058765;28;20450;-67
2024/01/11 09:49:31;;;;;;;51.20;27.83;;;;;;;;;;5076472;28;20421;-67
2024/01/11 09:51:57;;;;;;;48.73;25.93;;;;;;;;;;5076083;28;20504;-67
2024/01/11 09:54:23;;;;;;;43.13;26.13;;;;;;;;;;5075650;28;20560;-68
2024/01/11 09:56:51;;;;;;;50.63;27.87;;;;;;;;;;5075881;28;20407;-69
2024/01/11 09:59:19;;;;;;;47.87;25.90;;;;;;;;;;5076025;28;20406;-66
2024/01/11 10:01:46;;;;;;;46.03;23.97;;;;;;;;;;5075589;28;20511;-66
2024/01/11 10:04:13;;;;;;;51.00;27.17;;;;;;;;;;5058257;28;20420;-66
2024/01/11 10:06:39;;;;;;;47.70;26.67;;;;;;;;;;5075755;28;20418;-66
2024/01/11 10:09:05;;;;;;;44.03;27.40;;;;;;;;;;5075427;28;20417;-67
2024/01/11 10:11:31;;;;;;;56.00;29.77;;;;;;;;;;5075163;28;20487;-67
2024/01/11 10:13:58;;;;;;;50.00;27.70;;;;;;;;;;5075511;28;20525;-67
2024/01/11 10:16:24;;;;;;;49.40;25.27;;;;;;;;;;5075524;28;20180;-67
2024/01/11 10:18:50;;;;;;;48.60;25.40;;;;;;;;;;5075067;28;20406;-67
2024/01/11 10:21:16;;;;;;;50.07;27.30;;;;;;;;;;5057328;28;20182;-67
2024/01/11 10:23:42;;;;;;;41.63;19.63;;;;;;;;;;5057217;28;20420;-67
2024/01/11 10:26:08;;;;;;;37.10;21.83;;;;;;;;;;5075646;28;20178;-67
2024/01/11 10:28:37;;;;;;;48.73;26.10;;;;;;;;;;5076331;28;20209;-67
2024/01/11 10:31:04;;;;;;;50.50;27.60;;;;;;;;;;5076694;28;20444;-67
2024/01/11 10:33:30;;;;;;;48.03;25.63;;;;;;;;;;5063060;28;20844;-67
2024/01/11 10:35:56;;;;;;;47.90;25.37;;;;;;;;;;5063983;28;20419;-67
2024/01/11 10:38:23;;;;;;;50.70;26.87;;;;;;;;;;5060975;28;20179;-67
2024/01/11 10:40:49;;;;;;;52.07;27.73;;;;;;;;;;5078291;28;20404;-67
2024/01/11 10:43:20;;;;;;;49.23;25.67;;;;;;;;;;5076801;28;21055;-67
2024/01/11 10:45:48;;;;;;;52.53;27.53;;;;;;;;;;5077484;28;20170;-67
2024/01/11 10:48:14;;;;;;;48.90;25.53;;;;;;;;;;5077585;28;20409;-67
2024/01/11 10:50:44;;;;;;;52.43;27.47;;;;;;;;;;5075786;28;20423;-67
2024/01/11 10:53:29;;;;;;;53.77;28.20;;;;;;;;;;5056730;28;20982;-67
2024/01/11 10:55:56;;;;;;;40.47;26.20;;;;;;;;;;5074443;28;20423;-67
2024/01/11 10:58:22;;;;;;;49.90;26.57;;;;;;;;;;5056223;28;20910;-67
2024/01/11 11:00:50;;;;;;;45.17;25.07;;;;;;;;;;5074586;28;20557;-67
2024/01/11 11:03:16;;;;;;;27.10;16.07;;;;;;;;;;5074028;28;20921;-67
2024/01/11 11:05:43;;;;;;;36.67;20.07;;;;;;;;;;5075099;28;20416;-67
2024/01/11 11:08:10;;;;;;;40.30;23.97;;;;;;;;;;5074715;28;20413;-67
2024/01/11 11:10:36;;;;;;;41.97;22.77;;;;;;;;;;5074268;28;20415;-67
2024/01/11 11:13:04;;;;;;;44.27;23.27;;;;;;;;;;5055981;28;20988;-67
2024/01/11 11:15:29;;;;;;;42.93;23.23;;;;;;;;;;5074281;28;20489;-67
2024/01/11 11:17:56;;;;;;;41.73;22.43;;;;;;;;;;5073745;28;20838;-67
2024/01/11 11:20:22;;;;;;;39.43;23.00;;;;;;;;;;5073871;28;20185;-67
2024/01/11 11:23:07;;;;;;;34.03;20.47;;;;;;;;;;5073599;28;20460;-67
2024/01/11 11:25:34;;;;;;;35.43;21.37;;;;;;;;;;5073221;28;20465;-67
2024/01/11 11:28:04;;;;;;;40.00;23.17;;;;;;;;;;5073722;28;20442;-71
2024/01/11 11:30:49;;;;;;;38.80;21.27;;;;;;;;;;5055407;28;20420;-67
2024/01/11 11:33:19;;;;;;;41.37;21.93;;;;;;;;;;5073354;28;21055;-67
2024/01/11 11:35:48;;;;;;;38.30;21.53;;;;;;;;;;5073298;28;20415;-67
2024/01/11 11:38:19;;;;;;;42.50;22.57;;;;;;;;;;5073126;28;20902;-67
2024/01/11 11:40:46;;;;;;;38.63;22.43;;;;;;;;;;5073653;28;20411;-66
2024/01/11 11:43:13;;;;;;;36.37;19.87;;;;;;;;;;5055496;28;20455;-66
2024/01/11 11:45:41;;;;;;;43.70;20.47;;;;;;;;;;5075633;28;20408;-66
2024/01/11 11:48:26;;;;;;;38.43;22.03;;;;;;;;;;5074126;28;20412;-65
2024/01/11 11:51:01;;;;;;;38.27;22.07;;;;;;;;;;5074796;28;20746;-66
2024/01/11 11:53:31;;;;;;;37.93;21.87;;;;;;;;;;5073680;28;20930;-66
2024/01/11 11:55:57;;;;;;;38.47;19.63;;;;;;;;;;5073595;28;21011;-67
2024/01/11 11:58:23;;;;;;;43.40;21.03;;;;;;;;;;5055360;28;20412;-65
2024/01/11 12:00:49;;;;;;;42.43;23.13;;;;;;;;;;5073067;28;20912;-67
2024/01/11 12:03:17;;;;;;;38.87;23.63;;;;;;;;;;5073359;28;20203;-65
2024/01/11 12:05:43;;;;;;;42.10;21.63;;;;;;;;;;5073170;28;20415;-65
2024/01/11 12:08:09;;;;;;;43.00;22.60;;;;;;;;;;5055213;28;20949;-65
2024/01/11 12:10:35;;;;;;;35.63;20.20;;;;;;;;;;5073045;28;20438;-65
2024/01/11 12:13:02;;;;;;;38.43;20.43;;;;;;;;;;5072514;28;20213;-64
2024/01/11 12:15:28;;;;;;;33.30;18.00;;;;;;;;;;5072832;28;20235;-67
2024/01/11 12:18:00;;;;;;;38.50;22.23;;;;;;;;;;5072971;28;20409;-65
2024/01/11 12:20:26;;;;;;;38.67;22.13;;;;;;;;;;5073875;28;20910;-65
2024/01/11 12:22:52;;;;;;;40.30;22.87;;;;;;;;;;5072409;28;20431;-66
2024/01/11 12:25:18;;;;;;;36.73;21.97;;;;;;;;;;5072577;28;20177;-66
2024/01/11 12:27:45;;;;;;;41.23;22.57;;;;;;;;;;5072459;28;20665;-66
2024/01/11 12:30:14;;;;;;;35.10;21.07;;;;;;;;;;5072770;28;20834;-66
2024/01/11 12:32:40;;;;;;;30.90;20.50;;;;;;;;;;5072642;28;20530;-62
2024/01/11 12:35:06;;;;;;;37.10;19.97;;;;;;;;;;5072423;28;20541;-63
2024/01/11 12:37:32;;;;;;;33.77;18.50;;;;;;;;;;5072367;28;20415;-63
2024/01/11 12:40:01;;;;;;;34.33;18.43;;;;;;;;;;5072403;28;20408;-63
2024/01/11 12:42:28;;;;;;;32.70;19.07;;;;;;;;;;5072360;28;20209;-64
2024/01/11 12:44:54;;;;;;;34.73;18.27;;;;;;;;;;5072289;28;20421;-63
2024/01/11 12:47:20;;;;;;;29.97;18.60;;;;;;;;;;5072364;28;20415;-63
2024/01/11 12:49:46;;;;;;;31.50;17.57;;;;;;;;;;5054258;28;20444;-63
2024/01/11 12:52:19;;;;;;;28.27;17.03;;;;;;;;;;5072195;28;20197;-63
2024/01/11 12:54:45;;;;;;;29.90;17.00;;;;;;;;;;5072085;28;20563;-63
2024/01/11 12:57:21;;;;;;;32.90;20.50;;;;;;;;;;5072231;28;20777;-63
2024/01/11 12:59:47;;;;;;;31.03;17.47;;;;;;;;;;5054035;28;20412;-64
2024/01/11 13:02:14;;;;;;;28.73;16.10;;;;;;;;;;5072108;28;20443;-63
2024/01/11 13:04:40;;;;;;;28.10;17.00;;;;;;;;;;5053947;28;20419;-64
2024/01/11 13:07:06;;;;;;;26.43;16.90;;;;;;;;;;5071955;28;20466;-63
2024/01/11 13:09:33;;;;;;;28.27;16.33;;;;;;;;;;5072062;28;20408;-63
2024/01/11 13:11:59;;;;;;;26.57;15.93;;;;;;;;;;5053919;28;20985;-63
2024/01/11 13:14:26;;;;;;;23.73;15.90;;;;;;;;;;5071837;28;20508;-63
2024/01/11 13:16:52;;;;;;;25.93;15.77;;;;;;;;;;5072459;28;20491;-64
2024/01/11 13:19:18;;;;;;;26.60;16.10;;;;;;;;;;5072315;28;20408;-63
2024/01/11 13:21:44;;;;;;;27.53;16.63;;;;;;;;;;5072143;28;20432;-63
2024/01/11 13:24:10;;;;;;;32.07;18.17;;;;;;;;;;5071809;28;20190;-64
2024/01/11 13:26:40;;;;;;;29.90;16.77;;;;;;;;;;5071931;28;20189;-61
2024/01/11 13:29:06;;;;;;;29.40;16.37;;;;;;;;;;5072100;28;20280;-63
2024/01/11 13:31:32;;;;;;;30.10;16.27;;;;;;;;;;5072074;28;20522;-63
2024/01/11 13:33:58;;;;;;;27.73;17.37;;;;;;;;;;5072176;28;20674;-63
2024/01/11 13:36:24;;;;;;;26.27;15.10;;;;;;;;;;5071665;28;20902;-63
2024/01/11 13:38:52;;;;;;;29.17;16.40;;;;;;;;;;5071665;28;20400;-63
2024/01/11 13:41:18;;;;;;;31.40;16.67;;;;;;;;;;5071568;28;20408;-63
2024/01/11 13:43:44;;;;;;;32.87;18.33;;;;;;;;;;5072018;28;20469;-62
2024/01/11 13:46:11;;;;;;;25.73;16.20;;;;;;;;;;5071730;28;20280;-63
2024/01/11 13:48:37;;;;;;;24.17;15.53;;;;;;;;;;5055688;28;20192;-63
2024/01/11 13:51:04;;;;;;;25.30;15.50;;;;;;;;;;5075239;28;20416;-64
2024/01/11 13:53:30;;;;;;;25.30;15.77;;;;;;;;;;5057001;28;20460;-64
2024/01/11 13:55:56;;;;;;;27.37;16.27;;;;;;;;;;5075110;28;20404;-63
2024/01/11 13:58:23;;;;;;;28.57;16.37;;;;;;;;;;5075057;28;20422;-63
2024/01/11 14:00:48;;;;;;;24.30;15.33;;;;;;;;;;5075189;28;20224;-63
2024/01/11 14:03:14;;;;;;;26.30;14.77;;;;;;;;;;5074746;28;20992;-64
2024/01/11 14:05:41;;;;;;;23.23;14.70;;;;;;;;;;5074913;28;20193;-63
2024/01/11 14:08:07;;;;;;;26.40;14.90;;;;;;;;;;5074811;28;20174;-64
2024/01/11 14:10:34;;;;;;;24.83;14.93;;;;;;;;;;5074815;28;20495;-63
2024/01/11 14:13:00;;;;;;;28.23;16.60;;;;;;;;;;5074597;28;20501;-64